Time;durP1;ratioP1;P1;durP2;ratioP2;P2;SDS_P1;SDS_P2;PMS_P1;PMS_P2;Temp;Humidity;BMP_temperature;BMP_pressure;BME280_temperature;BME280_humidity;BME280_pressure;Samples;Min_cycle;Max_cycle;Signal;HPM_P1;HPM_P2
2023/05/15 00:00:21;;;;;;;;;;;;;;;;;;1043223;28;5176;-49
2023/05/15 00:01:12;;;;;;;;;;;;;;;;;;1046217;28;2962;-52
2023/05/15 00:01:42;;;;;;;;;;;;;;;;;;1043645;28;4957;-48
2023/05/15 00:02:13;;;;;;;;;;;;;;;;;;1044055;28;3403;-51
2023/05/15 00:02:43;;;;;;;;;;;;;;;;;;1041962;28;3952;-53
2023/05/15 00:03:13;;;;;;;;;;;;;;;;;;1042238;28;2821;-50
2023/05/15 00:03:44;;;;;;;;;;;;;;;;;;1044011;28;4009;-52
2023/05/15 00:04:15;;;;;;;;;;;;;;;;;;1046058;28;2735;-49
2023/05/15 00:04:45;;;;;;;;;;;;;;;;;;1046496;28;3930;-50
2023/05/15 00:05:15;;;;;;;;;;;;;;;;;;1045939;28;2961;-51
2023/05/15 00:05:46;;;;;;;;;;;;;;;;;;1043440;28;3873;-52
2023/05/15 00:06:16;;;;;;;;;;;;;;;;;;1044429;28;2809;-51
2023/05/15 00:06:46;;;;;;;;;;;;;;;;;;1044390;28;3988;-56
2023/05/15 00:07:16;;;;;;;;;;;;;;;;;;1045656;28;2081;-48
2023/05/15 00:07:47;;;;;;;;;;;;;;;;;;1044539;28;3687;-52
2023/05/15 00:08:17;;;;;;;;;;;;;;;;;;1045364;28;3133;-50
2023/05/15 00:08:47;;;;;;;;;;;;;;;;;;1046943;28;4071;-51
2023/05/15 00:09:18;;;;;;;;;;;;;;;;;;1044022;28;3135;-53
2023/05/15 00:09:48;;;;;;;;;;;;;;;;;;1046578;28;4358;-51
2023/05/15 00:10:18;;;;;;;;;;;;;;;;;;1046663;28;2997;-49
2023/05/15 00:10:48;;;;;;;;;;;;;;;;;;1045988;28;3917;-48
2023/05/15 00:11:20;;;;;;;;;;;;;;;;;;1045972;28;1983;-50
2023/05/15 00:11:50;;;;;;;;;;;;;;;;;;1046738;28;3897;-50
2023/05/15 00:12:20;;;;;;;;;;;;;;;;;;1044811;28;4037;-48
2023/05/15 00:12:51;;;;;;;;;;;;;;;;;;1041689;28;2902;-53
2023/05/15 00:13:21;;;;;;;;;;;;;;;;;;1042302;28;4028;-49
2023/05/15 00:13:51;;;;;;;;;;;;;;;;;;1041904;28;3250;-51
2023/05/15 00:14:21;;;;;;;;;;;;;;;;;;1041267;28;3799;-52
2023/05/15 00:14:52;;;;;;;;;;;;;;;;;;1042956;28;1355;-55
2023/05/15 00:15:22;;;;;;;;;;;;;;;;;;1039815;28;3766;-49
2023/05/15 00:15:52;;;;;;;;;;;;;;;;;;1040076;28;2933;-52
2023/05/15 00:16:23;;;;;;;;;;;;;;;;;;1041609;28;3955;-51
2023/05/15 00:16:53;;;;;;;;;;;;;;;;;;1042487;28;1898;-51
2023/05/15 00:17:24;;;;;;;;;;;;;;;;;;1041647;28;4194;-47
2023/05/15 00:17:54;;;;;;;;;;;;;;;;;;1042041;28;2312;-52
2023/05/15 00:18:24;;;;;;;;;;;;;;;;;;1041220;28;4502;-47
2023/05/15 00:18:55;;;;;;;;;;;;;;;;;;1040266;28;2943;-47
2023/05/15 00:19:25;;;;;;;;;;;;;;;;;;1042876;28;4285;-52
2023/05/15 00:19:57;;;;;;;;;;;;;;;;;;1042395;28;1778;-47
2023/05/15 00:20:28;;;;;;;;;;;;;;;;;;1039992;28;3867;-53
2023/05/15 00:20:58;;;;;;;;;;;;;;;;;;1040636;28;2803;-51
2023/05/15 00:21:28;;;;;;;;;;;;;;;;;;1042718;28;3883;-50
2023/05/15 00:21:59;;;;;;;;;;;;;;;;;;1041963;28;1879;-47
2023/05/15 00:22:29;;;;;;;;;;;;;;;;;;1042311;28;4026;-51
2023/05/15 00:22:59;;;;;;;;;;;;;;;;;;1042420;28;1675;-51
2023/05/15 00:23:30;;;;;;;;;;;;;;;;;;1039442;28;4052;-50
2023/05/15 00:24:00;;;;;;;;;;;;;;;;;;1041891;28;1706;-48
2023/05/15 00:24:30;;;;;;;;;;;;;;;;;;1040178;28;3947;-53
2023/05/15 00:25:01;;;;;;;;;;;;;;;;;;1041954;28;2799;-51
2023/05/15 00:25:31;;;;;;;;;;;;;;;;;;1039610;28;3787;-49
2023/05/15 00:26:01;;;;;;;;;;;;;;;;;;1040968;28;3114;-51
2023/05/15 00:26:31;;;;;;;;;;;;;;;;;;1039121;28;4025;-54
2023/05/15 00:27:03;;;;;;;;;;;;;;;;;;1043369;28;1646;-48
2023/05/15 00:27:33;;;;;;;;;;;;;;;;;;1041608;28;4361;-51
2023/05/15 00:28:03;;;;;;;;;;;;;;;;;;1039760;28;3321;-53
2023/05/15 00:28:33;;;;;;;;;;;;;;;;;;1040267;28;5464;-52
2023/05/15 00:29:04;;;;;;;;;;;;;;;;;;1041221;28;3006;-52
2023/05/15 00:29:34;;;;;;;;;;;;;;;;;;1042084;28;3927;-49
2023/05/15 00:30:05;;;;;;;;;;;;;;;;;;1040864;28;3008;-49
2023/05/15 00:30:35;;;;;;;;;;;;;;;;;;1039317;28;4058;-54
2023/05/15 00:31:07;;;;;;;;;;;;;;;;;;1042205;28;3021;-51
2023/05/15 00:31:37;;;;;;;;;;;;;;;;;;1041504;28;4158;-52
2023/05/15 00:32:08;;;;;;;;;;;;;;;;;;1042485;28;2838;-49
2023/05/15 00:32:38;;;;;;;;;;;;;;;;;;1042183;28;4198;-49
2023/05/15 00:33:09;;;;;;;;;;;;;;;;;;1042676;28;2950;-50
2023/05/15 00:33:39;;;;;;;;;;;;;;;;;;1041884;28;3878;-53
2023/05/15 00:34:09;;;;;;;;;;;;;;;;;;1039930;28;2972;-51
2023/05/15 00:34:39;;;;;;;;;;;;;;;;;;1042527;28;3716;-48
2023/05/15 00:35:10;;;;;;;;;;;;;;;;;;1039438;28;3356;-51
2023/05/15 00:35:40;;;;;;;;;;;;;;;;;;1041596;28;3831;-50
2023/05/15 00:36:11;;;;;;;;;;;;;;;;;;1043193;28;1905;-51
2023/05/15 00:36:41;;;;;;;;;;;;;;;;;;1043557;28;3924;-48
2023/05/15 00:37:11;;;;;;;;;;;;;;;;;;1041470;28;2999;-50
2023/05/15 00:37:41;;;;;;;;;;;;;;;;;;1042443;28;4139;-54
2023/05/15 00:38:12;;;;;;;;;;;;;;;;;;1039991;28;3045;-49
2023/05/15 00:38:42;;;;;;;;;;;;;;;;;;1041008;28;4168;-51
2023/05/15 00:39:12;;;;;;;;;;;;;;;;;;1041191;28;2930;-51
2023/05/15 00:39:43;;;;;;;;;;;;;;;;;;1041207;28;4010;-51
2023/05/15 00:40:17;;;;;;;;;;;;;;;;;;1041842;28;3253;-52
2023/05/15 00:40:48;;;;;;;;;;;;;;;;;;1040749;28;3841;-53
2023/05/15 00:41:18;;;;;;;;;;;;;;;;;;1040576;28;2744;-49
2023/05/15 00:41:50;;;;;;;;;;;;;;;;;;1042049;28;3973;-55
2023/05/15 00:42:22;;;;;;;;;;;;;;;;;;1042116;28;4014;-48
2023/05/15 00:42:53;;;;;;;;;;;;;;;;;;1042270;28;2337;-54
2023/05/15 00:43:24;;;;;;;;;;;;;;;;;;1040816;28;3983;-50
2023/05/15 00:43:55;;;;;;;;;;;;;;;;;;1043265;28;3278;-49
2023/05/15 00:44:25;;;;;;;;;;;;;;;;;;1040796;28;4403;-52
2023/05/15 00:44:57;;;;;;;;;;;;;;;;;;1042714;28;3273;-54
2023/05/15 00:45:27;;;;;;;;;;;;;;;;;;1040038;28;3946;-53
2023/05/15 00:45:58;;;;;;;;;;;;;;;;;;1044153;28;1600;-51
2023/05/15 00:46:31;;;;;;;;;;;;;;;;;;1041484;28;3785;-51
2023/05/15 00:47:02;;;;;;;;;;;;;;;;;;1043195;28;1797;-51
2023/05/15 00:47:33;;;;;;;;;;;;;;;;;;1043174;28;3853;-51
2023/05/15 00:48:04;;;;;;;;;;;;;;;;;;1042025;28;2948;-52
2023/05/15 00:48:35;;;;;;;;;;;;;;;;;;1040891;28;3924;-49
2023/05/15 00:49:12;;;;;;;;;;;;;;;;;;1040912;28;2852;-50
2023/05/15 00:49:43;;;;;;;;;;;;;;;;;;1042077;28;3912;-52
2023/05/15 00:50:13;;;;;;;;;;;;;;;;;;1040727;28;3062;-49
2023/05/15 00:50:44;;;;;;;;;;;;;;;;;;1038901;28;4959;-50
2023/05/15 00:51:14;;;;;;;;;;;;;;;;;;1039182;28;2983;-51
2023/05/15 00:51:45;;;;;;;;;;;;;;;;;;1041424;28;4149;-48
2023/05/15 00:52:15;;;;;;;;;;;;;;;;;;1042785;28;1848;-51
2023/05/15 00:52:46;;;;;;;;;;;;;;;;;;1042627;28;3755;-49
2023/05/15 00:53:16;;;;;;;;;;;;;;;;;;1041614;28;3027;-54
2023/05/15 00:53:48;;;;;;;;;;;;;;;;;;1040982;28;3950;-50
2023/05/15 00:54:18;;;;;;;;;;;;;;;;;;1042016;28;2895;-50
2023/05/15 00:54:48;;;;;;;;;;;;;;;;;;1043540;28;3783;-53
2023/05/15 00:55:19;;;;;;;;;;;;;;;;;;1043053;28;2765;-51
2023/05/15 00:55:50;;;;;;;;;;;;;;;;;;1041057;28;3796;-49
2023/05/15 00:56:21;;;;;;;;;;;;;;;;;;1041019;28;4379;-52
2023/05/15 00:56:51;;;;;;;;;;;;;;;;;;1043958;28;1747;-48
2023/05/15 00:57:22;;;;;;;;;;;;;;;;;;1043105;28;4068;-51
2023/05/15 00:57:53;;;;;;;;;;;;;;;;;;1040749;28;2666;-50
2023/05/15 00:58:25;;;;;;;;;;;;;;;;;;1041791;28;3931;-55
2023/05/15 00:58:58;;;;;;;;;;;;;;;;;;1043335;28;1763;-50
2023/05/15 00:59:29;;;;;;;;;;;;;;;;;;1041357;28;3734;-51
2023/05/15 00:59:59;;;;;;;;;;;;;;;;;;1043038;28;1730;-47
2023/05/15 01:00:30;;;;;;;;;;;;;;;;;;1038764;28;4044;-52
2023/05/15 01:01:00;;;;;;;;;;;;;;;;;;1040282;28;2703;-50
2023/05/15 01:01:33;;;;;;;;;;;;;;;;;;1042283;28;3860;-51
2023/05/15 01:02:03;;;;;;;;;;;;;;;;;;1040382;28;2877;-54
2023/05/15 01:02:33;;;;;;;;;;;;;;;;;;1043315;28;3736;-52
2023/05/15 01:03:04;;;;;;;;;;;;;;;;;;1043228;28;1817;-52
2023/05/15 01:03:35;;;;;;;;;;;;;;;;;;1042717;28;3885;-50
2023/05/15 01:04:06;;;;;;;;;;;;;;;;;;1040275;28;2252;-48
2023/05/15 01:04:36;;;;;;;;;;;;;;;;;;1043413;28;3980;-48
2023/05/15 01:05:07;;;;;;;;;;;;;;;;;;1040392;28;3147;-53
2023/05/15 01:05:38;;;;;;;;;;;;;;;;;;1039237;28;4036;-50
2023/05/15 01:06:08;;;;;;;;;;;;;;;;;;1042822;28;1641;-52
2023/05/15 01:06:39;;;;;;;;;;;;;;;;;;1042608;28;4053;-50
2023/05/15 01:07:09;;;;;;;;;;;;;;;;;;1042139;28;2961;-51
2023/05/15 01:07:43;;;;;;;;;;;;;;;;;;1043021;28;4021;-53
2023/05/15 01:08:25;;;;;;;;;;;;;;;;;;1041290;28;3234;-49
2023/05/15 01:08:57;;;;;;;;;;;;;;;;;;1043641;28;3782;-50
2023/05/15 01:09:28;;;;;;;;;;;;;;;;;;1045810;28;3964;-47
2023/05/15 01:10:00;;;;;;;;;;;;;;;;;;1047129;28;1698;-51
2023/05/15 01:10:30;;;;;;;;;;;;;;;;;;1043217;28;3840;-54
2023/05/15 01:11:01;;;;;;;;;;;;;;;;;;1046346;28;2929;-49
2023/05/15 01:11:37;;;;;;;;;;;;;;;;;;1043846;28;3943;-50
2023/05/15 01:12:08;;;;;;;;;;;;;;;;;;1046462;28;2938;-47
2023/05/15 01:12:39;;;;;;;;;;;;;;;;;;1046594;28;4019;-51
2023/05/15 01:13:10;;;;;;;;;;;;;;;;;;1048098;28;1721;-53
2023/05/15 01:13:40;;;;;;;;;;;;;;;;;;1044103;28;3845;-54
2023/05/15 01:14:10;;;;;;;;;;;;;;;;;;1046351;28;2905;-50
2023/05/15 01:14:41;;;;;;;;;;;;;;;;;;1047246;28;3857;-50
2023/05/15 01:15:11;;;;;;;;;;;;;;;;;;1044109;28;5129;-52
2023/05/15 01:15:42;;;;;;;;;;;;;;;;;;1045444;28;4013;-48
2023/05/15 01:16:12;;;;;;;;;;;;;;;;;;1044315;28;3051;-51
2023/05/15 01:16:42;;;;;;;;;;;;;;;;;;1044570;28;3920;-51
2023/05/15 01:17:13;;;;;;;;;;;;;;;;;;1046577;28;2454;-48
2023/05/15 01:17:43;;;;;;;;;;;;;;;;;;1046254;28;3784;-53
2023/05/15 01:18:14;;;;;;;;;;;;;;;;;;1046025;28;2792;-50
2023/05/15 01:18:44;;;;;;;;;;;;;;;;;;1045254;28;4033;-50
2023/05/15 01:19:14;;;;;;;;;;;;;;;;;;1044248;28;2854;-51
2023/05/15 01:19:45;;;;;;;;;;;;;;;;;;1047017;28;3934;-50
2023/05/15 01:20:17;;;;;;;;;;;;;;;;;;1045540;28;2834;-51
2023/05/15 01:20:53;;;;;;;;;;;;;;;;;;1044485;28;4001;-51
2023/05/15 01:21:40;;;;;;;;;;;;;;;;;;1046855;28;4201;-51
2023/05/15 01:22:19;;;;;;;;;;;;;;;;;;1047164;28;1688;-49
2023/05/15 01:22:55;;;;;;;;;;;;;;;;;;1046250;28;3785;-51
2023/05/15 01:23:44;;;;;;;;;;;;;;;;;;1046224;28;4017;-50
2023/05/15 01:24:15;;;;;;;;;;;;;;;;;;1046523;28;2944;-55
2023/05/15 01:25:04;;;;;;;;;;;;;;;;;;1045696;28;4136;-50
2023/05/15 01:25:39;;;;;;;;;;;;;;;;;;1044484;28;3856;-52
2023/05/15 01:26:23;;;;;;;;;;;;;;;;;;1043445;28;2837;-50
2023/05/15 01:27:08;;;;;;;;;;;;;;;;;;1045463;28;4011;-50
2023/05/15 01:27:42;;;;;;;;;;;;;;;;;;1046470;28;3833;-48
2023/05/15 01:28:15;;;;;;;;;;;;;;;;;;1047161;28;1687;-52
2023/05/15 01:28:49;;;;;;;;;;;;;;;;;;1047457;28;3832;-51
2023/05/15 01:29:23;;;;;;;;;;;;;;;;;;1047053;28;1690;-49
2023/05/15 01:30:12;;;;;;;;;;;;;;;;;;1046205;28;4163;-50
2023/05/15 01:30:43;;;;;;;;;;;;;;;;;;1047241;28;4023;-53
2023/05/15 01:31:15;;;;;;;;;;;;;;;;;;1047044;28;1910;-50
2023/05/15 01:31:49;;;;;;;;;;;;;;;;;;1042803;28;3742;-50
2023/05/15 01:32:22;;;;;;;;;;;;;;;;;;1040936;28;1749;-48
2023/05/15 01:32:56;;;;;;;;;;;;;;;;;;1045600;28;3854;-50
2023/05/15 01:33:33;;;;;;;;;;;;;;;;;;1046462;28;4007;-53
2023/05/15 01:34:06;;;;;;;;;;;;;;;;;;1044994;28;3357;-55
2023/05/15 01:34:51;;;;;;;;;;;;;;;;;;1045320;28;3952;-49
2023/05/15 01:35:40;;;;;;;;;;;;;;;;;;1046423;28;3868;-49
2023/05/15 01:36:13;;;;;;;;;;;;;;;;;;1045808;28;2969;-52
2023/05/15 01:36:52;;;;;;;;;;;;;;;;;;1046642;28;3701;-48
2023/05/15 01:37:24;;;;;;;;;;;;;;;;;;1047482;28;4094;-48
2023/05/15 01:38:00;;;;;;;;;;;;;;;;;;1044937;28;3075;-50
2023/05/15 01:38:34;;;;;;;;;;;;;;;;;;1046515;28;3911;-50
2023/05/15 01:39:05;;;;;;;;;;;;;;;;;;1045929;28;2024;-54
2023/05/15 01:39:37;;;;;;;;;;;;;;;;;;1045881;28;3909;-52
2023/05/15 01:40:09;;;;;;;;;;;;;;;;;;1046976;28;2745;-51
2023/05/15 01:40:40;;;;;;;;;;;;;;;;;;1047302;28;3997;-49
2023/05/15 01:41:13;;;;;;;;;;;;;;;;;;1042419;28;2859;-50
2023/05/15 01:41:43;;;;;;;;;;;;;;;;;;1045456;28;4012;-50
2023/05/15 01:42:15;;;;;;;;;;;;;;;;;;1044447;28;2938;-51
2023/05/15 01:43:07;;;;;;;;;;;;;;;;;;1045546;28;4029;-52
2023/05/15 01:43:41;;;;;;;;;;;;;;;;;;1047425;28;4057;-51
2023/05/15 01:44:17;;;;;;;;;;;;;;;;;;1046088;28;1711;-50
2023/05/15 01:44:51;;;;;;;;;;;;;;;;;;1045645;28;3906;-54
2023/05/15 01:45:22;;;;;;;;;;;;;;;;;;1044555;28;3867;-47
2023/05/15 01:45:54;;;;;;;;;;;;;;;;;;1047482;28;1757;-49
2023/05/15 01:46:26;;;;;;;;;;;;;;;;;;1046820;28;3961;-50
2023/05/15 01:46:58;;;;;;;;;;;;;;;;;;1046115;28;2928;-52
2023/05/15 01:47:38;;;;;;;;;;;;;;;;;;1046541;28;4018;-53
2023/05/15 01:48:09;;;;;;;;;;;;;;;;;;1047481;28;2834;-50
2023/05/15 01:48:40;;;;;;;;;;;;;;;;;;1046489;28;4080;-49
2023/05/15 01:49:12;;;;;;;;;;;;;;;;;;1045630;28;1703;-54
2023/05/15 01:49:43;;;;;;;;;;;;;;;;;;1046740;28;4023;-48
2023/05/15 01:50:16;;;;;;;;;;;;;;;;;;1045860;28;3114;-52
2023/05/15 01:50:48;;;;;;;;;;;;;;;;;;1046415;28;4038;-52
2023/05/15 01:51:19;;;;;;;;;;;;;;;;;;1046611;28;3000;-51
2023/05/15 01:51:51;;;;;;;;;;;;;;;;;;1046016;28;3841;-49
2023/05/15 01:52:26;;;;;;;;;;;;;;;;;;1047090;28;4097;-50
2023/05/15 01:52:57;;;;;;;;;;;;;;;;;;1044344;28;2901;-52
2023/05/15 01:53:31;;;;;;;;;;;;;;;;;;1045831;28;4024;-52
2023/05/15 01:54:02;;;;;;;;;;;;;;;;;;1045202;28;3084;-51
2023/05/15 01:54:33;;;;;;;;;;;;;;;;;;1047362;28;4028;-53
2023/05/15 01:55:04;;;;;;;;;;;;;;;;;;1046274;28;3113;-52
2023/05/15 01:55:36;;;;;;;;;;;;;;;;;;1045248;28;3832;-49
2023/05/15 01:56:08;;;;;;;;;;;;;;;;;;1046231;28;1816;-51
2023/05/15 01:56:39;;;;;;;;;;;;;;;;;;1045864;28;4099;-49
2023/05/15 01:57:10;;;;;;;;;;;;;;;;;;1046519;28;2871;-53
2023/05/15 01:57:41;;;;;;;;;;;;;;;;;;1045016;28;3834;-52
2023/05/15 01:58:12;;;;;;;;;;;;;;;;;;1046917;28;1808;-50
2023/05/15 01:58:42;;;;;;;;;;;;;;;;;;1044683;28;4048;-50
2023/05/15 01:59:13;;;;;;;;;;;;;;;;;;1046456;28;3375;-52
2023/05/15 01:59:44;;;;;;;;;;;;;;;;;;1044518;28;4018;-51
2023/05/15 02:00:15;;;;;;;;;;;;;;;;;;1044225;28;3757;-52
2023/05/15 02:00:46;;;;;;;;;;;;;;;;;;1044476;28;4005;-52
2023/05/15 02:01:17;;;;;;;;;;;;;;;;;;1044446;28;3019;-52
2023/05/15 02:01:49;;;;;;;;;;;;;;;;;;1045732;28;4044;-54
2023/05/15 02:02:20;;;;;;;;;;;;;;;;;;1044743;28;3222;-52
2023/05/15 02:02:51;;;;;;;;;;;;;;;;;;1046436;28;4075;-50
2023/05/15 02:03:22;;;;;;;;;;;;;;;;;;1045961;28;3872;-53
2023/05/15 02:03:53;;;;;;;;;;;;;;;;;;1046178;28;1716;-51
2023/05/15 02:04:24;;;;;;;;;;;;;;;;;;1045891;28;3942;-50
2023/05/15 02:04:55;;;;;;;;;;;;;;;;;;1046608;28;1843;-53
2023/05/15 02:05:26;;;;;;;;;;;;;;;;;;1047565;28;4212;-53
2023/05/15 02:05:56;;;;;;;;;;;;;;;;;;1043927;28;3050;-51
2023/05/15 02:06:27;;;;;;;;;;;;;;;;;;1045863;28;3984;-50
2023/05/15 02:06:58;;;;;;;;;;;;;;;;;;1044401;28;2933;-49
2023/05/15 02:07:29;;;;;;;;;;;;;;;;;;1046439;28;3849;-50
2023/05/15 02:08:01;;;;;;;;;;;;;;;;;;1045266;28;2887;-54
2023/05/15 02:08:31;;;;;;;;;;;;;;;;;;1043911;28;3876;-55
2023/05/15 02:09:02;;;;;;;;;;;;;;;;;;1046319;28;1832;-49
2023/05/15 02:09:33;;;;;;;;;;;;;;;;;;1047501;28;4402;-50
2023/05/15 02:10:03;;;;;;;;;;;;;;;;;;1045229;28;3060;-54
2023/05/15 02:10:34;;;;;;;;;;;;;;;;;;1044065;28;3996;-52
2023/05/15 02:11:05;;;;;;;;;;;;;;;;;;1052055;28;2797;-51
2023/05/15 02:11:36;;;;;;;;;;;;;;;;;;1049600;28;4061;-54
2023/05/15 02:12:07;;;;;;;;;;;;;;;;;;1051603;28;1690;-51
2023/05/15 02:12:38;;;;;;;;;;;;;;;;;;1048487;28;3769;-49
2023/05/15 02:13:09;;;;;;;;;;;;;;;;;;1047696;28;1653;-53
2023/05/15 02:13:40;;;;;;;;;;;;;;;;;;1046299;28;3784;-50
2023/05/15 02:14:11;;;;;;;;;;;;;;;;;;1045258;28;2936;-51
2023/05/15 02:14:41;;;;;;;;;;;;;;;;;;1045478;28;3995;-48
2023/05/15 02:15:12;;;;;;;;;;;;;;;;;;1046201;28;4548;-50
2023/05/15 02:15:42;;;;;;;;;;;;;;;;;;1045723;28;4452;-54
2023/05/15 02:16:12;;;;;;;;;;;;;;;;;;1044718;28;3284;-49
2023/05/15 02:16:43;;;;;;;;;;;;;;;;;;1045677;28;3974;-51
2023/05/15 02:17:13;;;;;;;;;;;;;;;;;;1045664;28;3036;-51
2023/05/15 02:17:43;;;;;;;;;;;;;;;;;;1044757;28;4352;-52
2023/05/15 02:18:13;;;;;;;;;;;;;;;;;;1045651;28;3346;-52
2023/05/15 02:18:44;;;;;;;;;;;;;;;;;;1045588;28;4070;-51
2023/05/15 02:19:14;;;;;;;;;;;;;;;;;;1044892;28;2776;-50
2023/05/15 02:19:44;;;;;;;;;;;;;;;;;;1046827;28;4021;-49
2023/05/15 02:20:15;;;;;;;;;;;;;;;;;;1044673;28;2851;-51
2023/05/15 02:20:45;;;;;;;;;;;;;;;;;;1043256;28;3807;-53
2023/05/15 02:21:15;;;;;;;;;;;;;;;;;;1043568;28;2704;-53
2023/05/15 02:21:46;;;;;;;;;;;;;;;;;;1046596;28;3761;-52
2023/05/15 02:22:16;;;;;;;;;;;;;;;;;;1046215;28;1694;-51
2023/05/15 02:22:46;;;;;;;;;;;;;;;;;;1048962;28;4029;-49
2023/05/15 02:23:16;;;;;;;;;;;;;;;;;;1049951;28;1894;-50
2023/05/15 02:23:47;;;;;;;;;;;;;;;;;;1048761;28;3948;-53
2023/05/15 02:24:17;;;;;;;;;;;;;;;;;;1051427;28;1728;-52
2023/05/15 02:24:47;;;;;;;;;;;;;;;;;;1043481;28;3960;-48
2023/05/15 02:25:19;;;;;;;;;;;;;;;;;;1047355;28;1731;-47
2023/05/15 02:26:04;;;;;;;;;;;;;;;;;;1045111;28;4154;-51
2023/05/15 02:26:53;;;;;;;;;;;;;;;;;;1044191;28;3998;-49
2023/05/15 02:27:25;;;;;;;;;;;;;;;;;;1046012;28;3858;-48
2023/05/15 02:27:59;;;;;;;;;;;;;;;;;;1045043;28;2835;-47
2023/05/15 02:28:32;;;;;;;;;;;;;;;;;;1046615;28;3912;-49
2023/05/15 02:29:09;;;;;;;;;;;;;;;;;;1046640;28;1526;-50
2023/05/15 02:29:53;;;;;;;;;;;;;;;;;;1044436;28;3996;-54
2023/05/15 02:30:30;;;;;;;;;;;;;;;;;;1045862;28;3767;-53
2023/05/15 02:31:04;;;;;;;;;;;;;;;;;;1042667;28;3071;-51
2023/05/15 02:31:39;;;;;;;;;;;;;;;;;;1046763;28;3920;-52
2023/05/15 02:32:28;;;;;;;;;;;;;;;;;;1044709;28;2718;-53
2023/05/15 02:33:18;;;;;;;;;;;;;;;;;;1045456;28;3988;-48
2023/05/15 02:34:02;;;;;;;;;;;;;;;;;;1046624;28;3773;-50
2023/05/15 02:34:43;;;;;;;;;;;;;;;;;;1045993;28;4008;-50
2023/05/15 02:35:20;;;;;;;;;;;;;;;;;;1044733;28;3184;-48
2023/05/15 02:35:55;;;;;;;;;;;;;;;;;;1047406;28;3943;-49
2023/05/15 02:36:29;;;;;;;;;;;;;;;;;;1045113;28;3967;-52
2023/05/15 02:37:00;;;;;;;;;;;;;;;;;;1041508;28;2837;-54
2023/05/15 02:37:31;;;;;;;;;;;;;;;;;;1042669;28;4212;-49
2023/05/15 02:38:06;;;;;;;;;;;;;;;;;;1039843;28;2932;-51
2023/05/15 02:38:46;;;;;;;;;;;;;;;;;;1041927;28;4013;-50
2023/05/15 02:39:17;;;;;;;;;;;;;;;;;;1041636;28;3249;-49
2023/05/15 02:39:48;;;;;;;;;;;;;;;;;;1039957;28;4208;-49
2023/05/15 02:40:19;;;;;;;;;;;;;;;;;;1039447;28;3005;-49
2023/05/15 02:40:50;;;;;;;;;;;;;;;;;;1042970;28;3923;-50
2023/05/15 02:41:20;;;;;;;;;;;;;;;;;;1040139;28;3516;-51
2023/05/15 02:41:51;;;;;;;;;;;;;;;;;;1040379;28;3646;-50
2023/05/15 02:42:22;;;;;;;;;;;;;;;;;;1043093;28;3754;-49
2023/05/15 02:42:53;;;;;;;;;;;;;;;;;;1045378;28;2935;-51
2023/05/15 02:43:25;;;;;;;;;;;;;;;;;;1046222;28;3928;-53
2023/05/15 02:43:55;;;;;;;;;;;;;;;;;;1045938;28;3202;-50
2023/05/15 02:44:26;;;;;;;;;;;;;;;;;;1045413;28;3771;-49
2023/05/15 02:44:57;;;;;;;;;;;;;;;;;;1045717;28;2912;-51
2023/05/15 02:45:28;;;;;;;;;;;;;;;;;;1043770;28;3858;-51
2023/05/15 02:45:58;;;;;;;;;;;;;;;;;;1045883;28;2891;-51
2023/05/15 02:46:29;;;;;;;;;;;;;;;;;;1045908;28;4082;-53
2023/05/15 02:46:59;;;;;;;;;;;;;;;;;;1044640;28;3322;-49
2023/05/15 02:47:31;;;;;;;;;;;;;;;;;;1046397;28;3765;-49
2023/05/15 02:48:02;;;;;;;;;;;;;;;;;;1046059;28;2924;-50
2023/05/15 02:48:34;;;;;;;;;;;;;;;;;;1047228;28;3919;-51
2023/05/15 02:49:04;;;;;;;;;;;;;;;;;;1044075;28;2973;-53
2023/05/15 02:49:35;;;;;;;;;;;;;;;;;;1046790;28;3904;-46
2023/05/15 02:50:05;;;;;;;;;;;;;;;;;;1044234;28;2828;-48
2023/05/15 02:50:36;;;;;;;;;;;;;;;;;;1045206;28;4006;-50
2023/05/15 02:51:06;;;;;;;;;;;;;;;;;;1044072;28;2901;-51
2023/05/15 02:51:37;;;;;;;;;;;;;;;;;;1041704;28;3932;-50
2023/05/15 02:52:07;;;;;;;;;;;;;;;;;;1041446;28;3199;-52
2023/05/15 02:52:37;;;;;;;;;;;;;;;;;;1046543;28;3852;-53
2023/05/15 02:53:08;;;;;;;;;;;;;;;;;;1045101;28;2829;-51
2023/05/15 02:53:39;;;;;;;;;;;;;;;;;;1047121;28;3765;-51
2023/05/15 02:54:10;;;;;;;;;;;;;;;;;;1045508;28;3022;-51
2023/05/15 02:54:40;;;;;;;;;;;;;;;;;;1044708;28;3846;-51
2023/05/15 02:55:10;;;;;;;;;;;;;;;;;;1044256;28;2894;-49
2023/05/15 02:55:41;;;;;;;;;;;;;;;;;;1045485;28;3851;-50
2023/05/15 02:56:11;;;;;;;;;;;;;;;;;;1047861;28;1718;-48
2023/05/15 02:56:41;;;;;;;;;;;;;;;;;;1043984;28;3935;-50
2023/05/15 02:57:12;;;;;;;;;;;;;;;;;;1045455;28;2761;-50
2023/05/15 02:57:42;;;;;;;;;;;;;;;;;;1044495;28;3879;-51
2023/05/15 02:58:12;;;;;;;;;;;;;;;;;;1046725;28;2972;-52
2023/05/15 02:58:43;;;;;;;;;;;;;;;;;;1045040;28;4164;-51
2023/05/15 02:59:18;;;;;;;;;;;;;;;;;;1047805;28;1697;-52
2023/05/15 02:59:48;;;;;;;;;;;;;;;;;;1046730;28;3980;-50
2023/05/15 03:00:19;;;;;;;;;;;;;;;;;;1044816;28;3080;-48
2023/05/15 03:00:49;;;;;;;;;;;;;;;;;;1046303;28;3804;-53
2023/05/15 03:01:20;;;;;;;;;;;;;;;;;;1046204;28;2791;-51
2023/05/15 03:01:50;;;;;;;;;;;;;;;;;;1045865;28;4023;-53
2023/05/15 03:02:20;;;;;;;;;;;;;;;;;;1047454;28;1637;-53
2023/05/15 03:02:50;;;;;;;;;;;;;;;;;;1046446;28;4003;-51
2023/05/15 03:03:21;;;;;;;;;;;;;;;;;;1046541;28;3839;-50
2023/05/15 03:03:51;;;;;;;;;;;;;;;;;;1046840;28;3045;-48
2023/05/15 03:04:22;;;;;;;;;;;;;;;;;;1045328;28;4036;-53
2023/05/15 03:04:52;;;;;;;;;;;;;;;;;;1046698;28;1679;-55
2023/05/15 03:05:22;;;;;;;;;;;;;;;;;;1045328;28;3931;-49
2023/05/15 03:05:53;;;;;;;;;;;;;;;;;;1047648;28;1604;-53
2023/05/15 03:06:23;;;;;;;;;;;;;;;;;;1046227;28;4079;-54
2023/05/15 03:06:53;;;;;;;;;;;;;;;;;;1046481;28;2930;-50
2023/05/15 03:07:23;;;;;;;;;;;;;;;;;;1046121;28;4336;-55
2023/05/15 03:07:54;;;;;;;;;;;;;;;;;;1046143;28;3079;-54
2023/05/15 03:08:24;;;;;;;;;;;;;;;;;;1043259;28;4058;-52
2023/05/15 03:08:55;;;;;;;;;;;;;;;;;;1046094;28;2879;-47
2023/05/15 03:09:25;;;;;;;;;;;;;;;;;;1044599;28;3967;-52
2023/05/15 03:09:55;;;;;;;;;;;;;;;;;;1047285;28;1728;-54
2023/05/15 03:10:25;;;;;;;;;;;;;;;;;;1042513;28;4162;-48
2023/05/15 03:10:56;;;;;;;;;;;;;;;;;;1047625;28;1683;-51
2023/05/15 03:11:26;;;;;;;;;;;;;;;;;;1045486;28;3814;-52
2023/05/15 03:11:56;;;;;;;;;;;;;;;;;;1045926;28;2893;-49
2023/05/15 03:12:27;;;;;;;;;;;;;;;;;;1044977;28;4085;-54
2023/05/15 03:12:57;;;;;;;;;;;;;;;;;;1047095;28;1672;-51
2023/05/15 03:13:27;;;;;;;;;;;;;;;;;;1046291;28;4940;-51
2023/05/15 03:13:59;;;;;;;;;;;;;;;;;;1045104;28;2987;-51
2023/05/15 03:14:29;;;;;;;;;;;;;;;;;;1042590;28;3893;-50
2023/05/15 03:15:00;;;;;;;;;;;;;;;;;;1045221;28;2957;-50
2023/05/15 03:15:30;;;;;;;;;;;;;;;;;;1044875;28;4453;-52
2023/05/15 03:16:01;;;;;;;;;;;;;;;;;;1046848;28;2875;-51
2023/05/15 03:16:31;;;;;;;;;;;;;;;;;;1046741;28;3996;-50
2023/05/15 03:17:01;;;;;;;;;;;;;;;;;;1045438;28;2986;-50
2023/05/15 03:17:32;;;;;;;;;;;;;;;;;;1046210;28;3786;-52
2023/05/15 03:18:02;;;;;;;;;;;;;;;;;;1046450;28;1711;-52
2023/05/15 03:18:32;;;;;;;;;;;;;;;;;;1045611;28;4032;-54
2023/05/15 03:19:03;;;;;;;;;;;;;;;;;;1046883;28;1991;-54
2023/05/15 03:19:33;;;;;;;;;;;;;;;;;;1047206;28;4012;-51
2023/05/15 03:20:04;;;;;;;;;;;;;;;;;;1046499;28;3086;-50
2023/05/15 03:20:34;;;;;;;;;;;;;;;;;;1046737;28;3766;-52
2023/05/15 03:21:04;;;;;;;;;;;;;;;;;;1046840;28;1908;-53
2023/05/15 03:21:35;;;;;;;;;;;;;;;;;;1046973;28;4073;-51
2023/05/15 03:22:06;;;;;;;;;;;;;;;;;;1046030;28;2166;-54
2023/05/15 03:22:36;;;;;;;;;;;;;;;;;;1045887;28;3762;-47
2023/05/15 03:23:06;;;;;;;;;;;;;;;;;;1045773;28;2750;-49
2023/05/15 03:23:36;;;;;;;;;;;;;;;;;;1046451;28;3941;-51
2023/05/15 03:24:07;;;;;;;;;;;;;;;;;;1046493;28;1811;-55
2023/05/15 03:24:37;;;;;;;;;;;;;;;;;;1045852;28;4392;-52
2023/05/15 03:25:10;;;;;;;;;;;;;;;;;;1044951;28;2827;-53
2023/05/15 03:25:41;;;;;;;;;;;;;;;;;;1046904;28;3824;-49
2023/05/15 03:26:11;;;;;;;;;;;;;;;;;;1047216;28;1737;-50
2023/05/15 03:26:42;;;;;;;;;;;;;;;;;;1046872;28;3893;-52
2023/05/15 03:27:13;;;;;;;;;;;;;;;;;;1046696;28;1920;-53
2023/05/15 03:27:43;;;;;;;;;;;;;;;;;;1045636;28;3929;-51
2023/05/15 03:28:13;;;;;;;;;;;;;;;;;;1047284;28;2223;-48
2023/05/15 03:28:44;;;;;;;;;;;;;;;;;;1046260;28;3889;-54
2023/05/15 03:29:14;;;;;;;;;;;;;;;;;;1047051;28;1937;-48
2023/05/15 03:29:44;;;;;;;;;;;;;;;;;;1045191;28;3696;-51
2023/05/15 03:30:15;;;;;;;;;;;;;;;;;;1044594;28;2986;-51
2023/05/15 03:30:45;;;;;;;;;;;;;;;;;;1044454;28;3774;-51
2023/05/15 03:31:15;;;;;;;;;;;;;;;;;;1046759;28;1961;-52
2023/05/15 03:31:45;;;;;;;;;;;;;;;;;;1045936;28;4044;-52
2023/05/15 03:32:16;;;;;;;;;;;;;;;;;;1047547;28;1763;-54
2023/05/15 03:32:46;;;;;;;;;;;;;;;;;;1046141;28;3720;-50
2023/05/15 03:33:16;;;;;;;;;;;;;;;;;;1047169;28;2048;-52
2023/05/15 03:33:48;;;;;;;;;;;;;;;;;;1045259;28;3864;-52
2023/05/15 03:34:19;;;;;;;;;;;;;;;;;;1045907;28;1761;-50
2023/05/15 03:34:49;;;;;;;;;;;;;;;;;;1046487;28;4323;-52
2023/05/15 03:35:19;;;;;;;;;;;;;;;;;;1045546;28;2879;-51
2023/05/15 03:35:51;;;;;;;;;;;;;;;;;;1046707;28;3935;-54
2023/05/15 03:36:21;;;;;;;;;;;;;;;;;;1044296;28;3785;-48
2023/05/15 03:36:51;;;;;;;;;;;;;;;;;;1046792;28;1701;-55
2023/05/15 03:37:22;;;;;;;;;;;;;;;;;;1045956;28;3811;-50
2023/05/15 03:37:52;;;;;;;;;;;;;;;;;;1049554;28;1837;-52
2023/05/15 03:38:22;;;;;;;;;;;;;;;;;;1040699;28;4048;-55
2023/05/15 03:38:53;;;;;;;;;;;;;;;;;;1046765;28;3400;-50
2023/05/15 03:39:23;;;;;;;;;;;;;;;;;;1041521;28;3776;-53
2023/05/15 03:39:53;;;;;;;;;;;;;;;;;;1040907;28;2961;-51
2023/05/15 03:40:24;;;;;;;;;;;;;;;;;;1045767;28;4127;-50
2023/05/15 03:40:54;;;;;;;;;;;;;;;;;;1046855;28;1697;-53